Rhonda Lamulle — WDC8441 — position and weather

sailwx.info

Track history (hours):
 
Tides and Currents Weather Stations Pressure Air Temp Water Temp Dewpoint Dewpoint Depression Visibility Wind Speed Wind Dir Waves Ship Positions

Rhonda Lamulle

Owner: Florida Marine, LLC, Mandeville, LA. More information available from US FCC via Universal Licensing System and Coast Guard Vessel Documentation Center.

Last reported at 2016-Feb-06 02:33 UTC. Time now 2016-Feb-07 08:38 UTC.
Position N 30°24' W 086°52'.

Length 13 m; draft 3 m.

Type: Towing. MMSI: 367087104.

Date/timePositionNaut miles runAvg speedWind from/ knotsBaromVisibWave heightAir tempDewpointWater temp
2016-Feb-06 02:33N 30°24' W 086°52'12 6.0
2016-Feb-06 00:31N 30°24' W 086°38'5 5.1
2016-Feb-05 23:34N 30°25' W 086°32'0 0.5
2016-Feb-05 22:34N 30°26' W 086°32'0 0.4
2016-Feb-05 21:33N 30°25' W 086°33'0 0.5
2016-Feb-05 20:34N 30°26' W 086°32'0 0.3
2016-Feb-05 19:34N 30°25' W 086°32'1 0.6
2016-Feb-05 18:34N 30°26' W 086°32'1 0.5
2016-Feb-05 17:34N 30°25' W 086°32'0 0.2
2016-Feb-05 16:33N 30°25' W 086°32'0 0.1
2016-Feb-05 15:33N 30°25' W 086°31'0 0.1
2016-Feb-05 14:33N 30°25' W 086°31'3 3.1
2016-Feb-05 13:34N 30°27' W 086°28'2 1.9
2016-Feb-05 12:28N 30°29' W 086°29'0 0.0
2016-Feb-05 11:34N 30°29' W 086°29'0 0.0
2016-Feb-05 10:34N 30°29' W 086°29'0 0.0
2016-Feb-05 09:34N 30°29' W 086°29'0 0.0
2016-Feb-05 08:34N 30°29' W 086°29'0 0.0
2016-Feb-05 07:34N 30°29' W 086°29'0 0.0
2016-Feb-05 06:34N 30°29' W 086°29'0 0.0
2016-Feb-05 05:34N 30°29' W 086°29'0 0.0
2016-Feb-05 04:34N 30°29' W 086°29'0 0.0
2016-Feb-05 03:34N 30°29' W 086°29'0 0.0
2016-Feb-05 02:34N 30°29' W 086°29'0 0.0
2016-Feb-05 01:33N 30°29' W 086°29'0 0.0
2016-Feb-05 00:34N 30°29' W 086°29'0 0.0
2016-Feb-04 23:34N 30°29' W 086°29'0 0.0
2016-Feb-04 22:33N 30°29' W 086°29'0 0.0
2016-Feb-04 21:34N 30°29' W 086°29'0 0.0
2016-Feb-04 20:33N 30°29' W 086°29'0 0.0
2016-Feb-04 19:34N 30°29' W 086°29'0 0.0
2016-Feb-04 18:34N 30°29' W 086°29'0 0.0
2016-Feb-04 17:33N 30°29' W 086°29'0 0.0
2016-Feb-04 16:34N 30°29' W 086°29'0 0.0
2016-Feb-04 15:34N 30°29' W 086°29'0 0.0
2016-Feb-04 14:34N 30°29' W 086°29'0 0.0
2016-Feb-04 13:34N 30°29' W 086°29'0 0.0
2016-Feb-04 12:27N 30°29' W 086°29'0 0.0
2016-Feb-04 11:34N 30°29' W 086°29'0 0.0
2016-Feb-04 10:34N 30°29' W 086°29'0 0.0
2016-Feb-04 09:34N 30°29' W 086°29'0 0.0
2016-Feb-04 08:34N 30°29' W 086°29'0 0.0
2016-Feb-04 07:34N 30°29' W 086°29'0 0.0
2016-Feb-04 06:34N 30°29' W 086°29'0 0.0
2016-Feb-04 05:34N 30°29' W 086°29'0 0.0
2016-Feb-04 04:34N 30°29' W 086°29'0 0.0
2016-Feb-04 03:34N 30°29' W 086°29'0 0.0
2016-Feb-04 02:34N 30°29' W 086°29'0 0.0
2016-Feb-04 01:33N 30°29' W 086°29'0 0.0
2016-Feb-03 15:07N 30°29' W 086°29'0 0.0
2016-Feb-03 14:33N 30°29' W 086°29'0 0.0
2016-Feb-03 13:33N 30°29' W 086°29'0 0.0
2016-Feb-03 12:28N 30°29' W 086°29'0 0.0
2016-Feb-03 11:33N 30°29' W 086°29'0 0.0
2016-Feb-03 10:33N 30°29' W 086°29'0 0.0
2016-Feb-03 09:33N 30°29' W 086°29'0 0.0
2016-Feb-03 08:33N 30°29' W 086°29'0 0.0
2016-Feb-03 07:33N 30°29' W 086°29'0 0.0
2016-Feb-03 06:34N 30°29' W 086°29'0 0.0
2016-Feb-03 05:33N 30°29' W 086°29'0 0.0
2016-Feb-03 04:33N 30°29' W 086°29'0 0.1
2016-Feb-03 03:33N 30°29' W 086°29'3 2.7
2016-Feb-03 02:33N 30°27' W 086°27'6 6.5
2016-Feb-03 01:33N 30°26' W 086°20'  
2016-Jan-29 13:33N 30°26' W 086°16'7 5.9
2016-Jan-29 12:27N 30°26' W 086°23'5 5.7
2016-Jan-29 11:33N 30°26' W 086°29'6 5.6
2016-Jan-29 10:34N 30°24' W 086°35'8 3.9
2016-Jan-29 08:27N 30°24' W 086°45'5 5.6
2016-Jan-29 07:33N 30°24' W 086°51'  
Track history (hours):
 
Tides and Currents Weather Stations Pressure Air Temp Water Temp Dewpoint Dewpoint Depression Visibility Wind Speed Wind Dir Waves Ship Positions

Rhonda Lamulle

Owner: Florida Marine, LLC, Mandeville, LA. More information available from US FCC via Universal Licensing System and Coast Guard Vessel Documentation Center.

Last reported at 2016-Feb-06 02:33 UTC. Time now 2016-Feb-07 08:38 UTC.
Position N 30°24' W 086°52'.

Length 13 m; draft 3 m.

Type: Towing. MMSI: 367087104.

Date/timePositionNaut miles runAvg speedWind from/ knotsBaromVisibWave heightAir tempDewpointWater temp
2016-Feb-06 02:33N 30°24' W 086°52'12 6.0
2016-Feb-06 00:31N 30°24' W 086°38'5 5.1
2016-Feb-05 23:34N 30°25' W 086°32'0 0.5
2016-Feb-05 22:34N 30°26' W 086°32'0 0.4
2016-Feb-05 21:33N 30°25' W 086°33'0 0.5
2016-Feb-05 20:34N 30°26' W 086°32'0 0.3
2016-Feb-05 19:34N 30°25' W 086°32'1 0.6
2016-Feb-05 18:34N 30°26' W 086°32'1 0.5
2016-Feb-05 17:34N 30°25' W 086°32'0 0.2
2016-Feb-05 16:33N 30°25' W 086°32'0 0.1
2016-Feb-05 15:33N 30°25' W 086°31'0 0.1
2016-Feb-05 14:33N 30°25' W 086°31'3 3.1
2016-Feb-05 13:34N 30°27' W 086°28'2 1.9
2016-Feb-05 12:28N 30°29' W 086°29'0 0.0
2016-Feb-05 11:34N 30°29' W 086°29'0 0.0
2016-Feb-05 10:34N 30°29' W 086°29'0 0.0
2016-Feb-05 09:34N 30°29' W 086°29'0 0.0
2016-Feb-05 08:34N 30°29' W 086°29'0 0.0
2016-Feb-05 07:34N 30°29' W 086°29'0 0.0
2016-Feb-05 06:34N 30°29' W 086°29'0 0.0
2016-Feb-05 05:34N 30°29' W 086°29'0 0.0
2016-Feb-05 04:34N 30°29' W 086°29'0 0.0
2016-Feb-05 03:34N 30°29' W 086°29'0 0.0
2016-Feb-05 02:34N 30°29' W 086°29'0 0.0
2016-Feb-05 01:33N 30°29' W 086°29'0 0.0
2016-Feb-05 00:34N 30°29' W 086°29'0 0.0
2016-Feb-04 23:34N 30°29' W 086°29'0 0.0
2016-Feb-04 22:33N 30°29' W 086°29'0 0.0
2016-Feb-04 21:34N 30°29' W 086°29'0 0.0
2016-Feb-04 20:33N 30°29' W 086°29'0 0.0
2016-Feb-04 19:34N 30°29' W 086°29'0 0.0
2016-Feb-04 18:34N 30°29' W 086°29'0 0.0
2016-Feb-04 17:33N 30°29' W 086°29'0 0.0
2016-Feb-04 16:34N 30°29' W 086°29'0 0.0
2016-Feb-04 15:34N 30°29' W 086°29'0 0.0
2016-Feb-04 14:34N 30°29' W 086°29'0 0.0
2016-Feb-04 13:34N 30°29' W 086°29'0 0.0
2016-Feb-04 12:27N 30°29' W 086°29'0 0.0
2016-Feb-04 11:34N 30°29' W 086°29'0 0.0
2016-Feb-04 10:34N 30°29' W 086°29'0 0.0
2016-Feb-04 09:34N 30°29' W 086°29'0 0.0
2016-Feb-04 08:34N 30°29' W 086°29'0 0.0
2016-Feb-04 07:34N 30°29' W 086°29'0 0.0
2016-Feb-04 06:34N 30°29' W 086°29'0 0.0
2016-Feb-04 05:34N 30°29' W 086°29'0 0.0
2016-Feb-04 04:34N 30°29' W 086°29'0 0.0
2016-Feb-04 03:34N 30°29' W 086°29'0 0.0
2016-Feb-04 02:34N 30°29' W 086°29'0 0.0
2016-Feb-04 01:33N 30°29' W 086°29'0 0.0
2016-Feb-03 15:07N 30°29' W 086°29'0 0.0
2016-Feb-03 14:33N 30°29' W 086°29'0 0.0
2016-Feb-03 13:33N 30°29' W 086°29'0 0.0
2016-Feb-03 12:28N 30°29' W 086°29'0 0.0
2016-Feb-03 11:33N 30°29' W 086°29'0 0.0
2016-Feb-03 10:33N 30°29' W 086°29'0 0.0
2016-Feb-03 09:33N 30°29' W 086°29'0 0.0
2016-Feb-03 08:33N 30°29' W 086°29'0 0.0
2016-Feb-03 07:33N 30°29' W 086°29'0 0.0
2016-Feb-03 06:34N 30°29' W 086°29'0 0.0
2016-Feb-03 05:33N 30°29' W 086°29'0 0.0
2016-Feb-03 04:33N 30°29' W 086°29'0 0.1
2016-Feb-03 03:33N 30°29' W 086°29'3 2.7
2016-Feb-03 02:33N 30°27' W 086°27'6 6.5
2016-Feb-03 01:33N 30°26' W 086°20'  
2016-Jan-29 13:33N 30°26' W 086°16'7 5.9
2016-Jan-29 12:27N 30°26' W 086°23'5 5.7
2016-Jan-29 11:33N 30°26' W 086°29'6 5.6
2016-Jan-29 10:34N 30°24' W 086°35'8 3.9
2016-Jan-29 08:27N 30°24' W 086°45'5 5.6
2016-Jan-29 07:33N 30°24' W 086°51'  

Dump ship's entire track history